Terminal Aerodrome Forecast
Issued by NWS Twin Cities, MN

Home | Current Version | Previous Version | Graphics & Text | Print | Product List | Glossary On
Versions: 1 2 3 4 5 6 7 8 9 10 11 12 13 14 15 16
000
FTUS43 KMPX 282339
TAFEAU
TAF
KEAU 282339Z 2900/2924 05007KT 6SM -RA BR BKN035
     FM290600 03004KT P6SM SCT040 BKN060
     FM291500 05007KT P6SM BKN100=

USA.gov is the U.S. government's official web portal to all federal, state and local government web resources and services.